Estació municipal de Cànoves i Samalús (Vallès Oriental, P.N.del Montseny)

Consulta les dades en temps real de l'estació municipal de Cànoves i Samalús





Hora UTC 20:40
Temperatura 13.6 ºC
Humitat 92.4 %
Pressió 1011.2 hPa
Pluja 3.1 mm
Velocitat vent 6.4 km/h
Direcció vent SW
Radiació solar 0.1 W/m²

Webcam

Dades diàries 2026-05-04



Hora UTC (hivern +1h; estiu +2h)
Temperatura (ºC) Humitat (%) Pressió (hPa) Velocitat vent (km/h) Precipitació (mm) Radiació solar (W/m²)
Hora UTC Aire Humitat Pressió Vel. Dir. Vel. Max Dir. Intent. màx 5 min. Rad. Sol.
00:05 13.5 94.3 1013.0 0.0 NNE 0.0 S 0.0 0.1
00:10 13.4 94.4 1013.0 0.0 NNE 0.0 S 0.0 0.1
00:15 13.4 94.5 1013.0 0.8 WNW 2.5 WNW 0.0 0.1
00:20 13.5 94.8 1013.0 1.7 NW 2.8 NW 0.0 0.1
00:25 13.5 94.9 1013.1 0.6 NE 2.1 NE 0.0 0.1
00:30 13.6 95.0 1013.1 0.2 NE 1.8 NE 0.0 0.1
00:35 13.6 95.0 1013.0 0.0 NNE 0.0 ESE 0.0 0.1
00:40 13.6 95.0 1012.9 1.6 WNW 2.8 WNW 0.0 0.1
00:45 13.6 94.9 1012.9 1.8 WNW 2.8 W 0.0 0.1
00:50 13.6 95.0 1012.8 1.9 NW 3.2 NW 0.0 0.1
00:55 13.6 95.1 1012.8 0.5 NNW 2.1 NW 0.0 0.1
01:00 13.6 95.0 1012.6 0.8 NNW 4.2 NNW 0.0 0.1
01:05 13.5 94.9 1012.6 3.5 NW 6.0 WNW 0.0 0.1
01:10 13.5 94.9 1012.5 2.8 NW 4.6 NW 0.0 0.1
01:15 13.5 94.9 1012.4 3.9 WNW 6.7 WNW 0.0 0.1
01:20 13.5 94.9 1012.5 3.4 WNW 5.3 WNW 0.0 0.1
01:25 13.6 94.7 1012.4 3.5 WNW 5.3 WNW 0.0 0.1
01:30 13.6 94.6 1012.5 4.3 WNW 6.7 NW 0.0 0.1
01:35 13.6 94.4 1012.5 2.9 WNW 4.6 WNW 0.0 0.1
01:40 13.6 94.2 1012.5 1.3 WSW 4.6 WNW 0.0 0.1
01:45 13.7 94.3 1012.4 0.1 SSW 1.4 SSW 0.0 0.1
01:50 13.8 94.3 1012.3 0.0 NNE 0.0 SSW 0.0 0.1
01:55 13.8 94.1 1012.3 0.5 NW 2.5 NW 0.0 0.1
02:00 13.8 94.1 1012.2 1.0 SW 2.1 SW 0.0 0.1
02:05 13.8 94.1 1012.2 1.1 WSW 2.5 WSW 0.0 0.1
02:10 13.7 93.8 1012.2 2.1 W 6.0 WSW 0.0 0.1
02:15 13.7 93.6 1012.2 3.4 WNW 5.3 WSW 0.0 0.1
02:20 13.7 93.2 1012.2 4.4 NW 7.1 WNW 0.0 0.1
02:25 13.7 92.6 1012.1 2.1 W 3.9 WNW 0.0 0.1
02:30 13.8 92.5 1012.1 1.7 WNW 2.8 WNW 0.0 0.1
02:35 13.9 92.4 1012.0 1.4 WNW 3.2 WNW 0.0 0.1
02:40 13.8 92.1 1012.0 1.0 W 2.1 W 0.0 0.1
02:45 13.9 92.1 1012.0 0.1 W 1.8 W 0.0 0.1
02:50 14.0 92.4 1012.1 1.0 S 3.2 S 0.0 0.1
02:55 14.1 92.5 1012.2 2.4 SSE 3.5 S 0.0 0.1
03:00 14.1 92.8 1012.2 1.2 SSE 3.2 SSE 0.0 0.1
03:05 14.1 93.0 1012.3 0.6 SE 2.1 SE 0.0 0.1
03:10 14.1 93.1 1012.3 0.0 NNE 0.0 SE 0.0 0.1
03:15 14.1 93.2 1012.3 0.0 NNE 0.0 SE 0.0 0.1
03:20 14.1 93.3 1012.3 0.0 NNE 0.0 SE 0.0 0.1
03:25 14.0 93.3 1012.1 1.3 NNW 2.8 NNW 0.0 0.1
03:30 14.0 93.4 1012.1 0.3 NW 1.8 NW 0.0 0.1
03:35 13.9 93.2 1012.0 2.5 NW 6.0 NW 0.0 0.1
03:40 13.7 92.8 1012.0 3.5 NW 6.0 NW 0.0 0.1
03:45 13.7 92.7 1012.0 3.0 NW 6.0 NW 0.0 0.1
03:50 13.7 92.7 1011.9 1.1 WNW 2.5 WNW 0.0 0.1
03:55 13.8 92.9 1011.9 0.2 WNW 1.8 WNW 0.0 0.1
04:00 14.0 93.3 1012.0 2.8 SSE 6.7 SSE 0.0 0.1
04:05 14.0 93.5 1012.0 2.3 SE 3.9 SSE 0.0 0.1
04:10 14.0 93.6 1011.9 3.4 SE 4.9 ESE 0.0 0.1
04:15 13.9 93.8 1011.9 0.2 SSE 2.5 SE 0.0 0.1
04:20 13.9 93.9 1011.8 1.9 NNW 4.6 NNW 0.0 0.2
04:25 13.8 93.7 1011.8 3.1 WNW 6.4 WSW 0.0 0.2
04:30 13.6 93.5 1011.7 3.9 W 6.7 W 0.0 0.4
04:35 13.5 93.5 1011.6 3.3 WNW 6.4 W 0.0 0.8
04:40 13.5 93.5 1011.6 3.5 WSW 6.0 WSW 0.0 1.6
04:45 13.5 93.4 1011.7 6.1 WSW 9.5 WSW 0.0 2.5
04:50 13.5 93.3 1011.7 7.3 WSW 11.6 WSW 0.0 3.1
04:55 13.5 93.3 1011.9 4.9 WSW 9.2 W 0.0 3.3
05:00 13.5 93.4 1011.9 5.6 WSW 8.8 WSW 0.0 5.1
05:05 13.6 93.6 1011.9 3.4 WSW 8.5 SW 0.0 9.3
05:10 13.5 93.7 1011.9 3.0 SW 6.4 SW 0.0 11.3
05:15 13.5 93.8 1011.8 3.8 WSW 7.1 W 0.0 13.1
05:20 13.5 93.9 1011.9 3.5 WSW 6.7 WSW 0.0 16.5
05:25 13.5 94.1 1011.8 4.2 WSW 7.1 WSW 0.0 22.7
05:30 13.5 94.2 1011.8 4.1 WSW 5.6 W 0.0 46.4
05:35 13.5 94.5 1011.8 3.8 W 6.0 W 0.0 80.0
05:40 13.6 94.6 1011.8 4.3 WSW 7.1 W 0.0 119.5
05:45 13.7 94.6 1011.8 3.4 WNW 6.0 WNW 0.0 147.4
05:50 13.9 94.2 1011.7 3.3 W 6.4 W 0.0 175.5
05:55 14.2 94.1 1011.7 2.1 S 5.3 SSE 0.0 191.7
06:00 14.3 92.4 1011.7 2.4 WSW 6.4 WSW 0.0 192.8
06:05 14.6 91.3 1011.6 3.0 S 8.1 S 0.0 175.6
06:10 15.0 88.6 1011.7 4.9 S 8.1 S 0.0 191.7
06:15 15.4 87.6 1011.7 5.4 SSE 8.5 SSE 0.0 204.6
06:20 15.7 88.0 1011.7 5.9 SE 9.2 SSE 0.0 218.3
06:25 15.8 88.7 1011.6 5.0 SSE 7.4 SE 0.0 232.1
06:30 15.8 89.0 1011.6 5.3 SE 11.3 SSE 0.0 247.1
06:35 15.8 89.0 1011.6 3.5 S 8.5 SE 0.0 253.1
06:40 15.7 87.1 1011.6 6.4 SW 11.6 W 0.0 106.0
06:45 15.8 85.7 1011.7 8.2 SSW 15.2 S 0.0 67.5
06:50 15.9 85.8 1011.7 7.5 SSW 15.2 S 0.0 244.8
06:55 16.1 85.1 1011.6 6.1 SW 15.2 SW 0.0 325.8
07:00 16.2 84.3 1011.6 5.8 SSW 14.8 SSW 0.0 345.5
07:05 16.4 83.7 1011.6 6.0 SW 13.1 SW 0.0 362.1
07:10 16.7 83.2 1011.6 5.5 SW 14.8 SW 0.0 372.7
07:15 16.8 82.8 1011.5 6.4 SW 17.3 SSW 0.0 381.9
07:20 16.8 82.1 1011.5 10.9 S 19.1 S 0.0 407.7
07:25 17.0 83.2 1011.6 7.0 SSW 16.9 S 0.0 434.0
07:30 17.2 82.2 1011.6 9.2 SSW 16.9 SSW 0.0 392.0
07:35 17.0 81.9 1011.6 7.1 SSW 14.5 SSE 0.0 341.2
07:40 17.1 80.9 1011.5 10.4 S 18.4 S 0.0 482.6
07:45 17.2 80.5 1011.4 9.2 S 16.9 SSW 0.0 426.2
07:50 17.4 80.3 1011.4 10.4 S 17.6 S 0.0 472.4
07:55 17.5 79.9 1011.4 9.4 S 15.5 S 0.0 542.8
08:00 17.7 79.4 1011.3 9.4 S 15.5 S 0.0 509.3
08:05 17.9 80.3 1011.3 8.8 S 16.6 S 0.0 598.9
08:10 18.0 79.0 1011.2 9.3 SSW 19.4 SSW 0.0 315.6
08:15 17.9 78.5 1011.2 6.2 S 15.2 SSE 0.0 336.9
08:20 17.9 78.1 1011.2 8.9 SSW 15.5 SSW 0.0 388.3
08:25 17.9 78.0 1011.2 9.7 SSW 15.5 SW 0.0 587.1
08:30 18.2 77.4 1011.2 9.4 S 16.2 SSW 0.0 646.3
08:35 18.6 76.9 1011.2 5.1 SSW 13.1 SSW 0.0 686.8
08:40 19.1 76.0 1011.1 6.5 SSW 12.7 ESE 0.0 695.4
08:45 19.6 74.0 1011.1 7.7 SSW 14.1 S 0.0 610.1
08:50 19.6 72.7 1011.1 9.2 S 17.6 S 0.0 398.3
08:55 19.6 73.1 1011.3 9.0 S 17.6 SSE 0.0 626.2
09:00 19.6 71.4 1011.2 9.8 S 19.4 S 0.0 372.2
09:05 19.6 72.4 1011.2 6.0 S 17.3 SSE 0.0 802.0
09:10 20.1 71.3 1011.2 8.0 SSW 15.9 SW 0.0 521.3
09:15 20.0 71.6 1011.1 7.5 SSW 15.9 S 0.0 480.0
09:20 20.1 72.6 1011.1 6.6 S 16.9 S 0.0 855.0
09:25 20.4 70.6 1011.0 9.9 S 17.3 S 0.0 777.1
09:30 20.6 69.9 1011.0 9.6 S 18.0 SSW 0.0 791.7
09:35 21.1 69.4 1011.0 6.8 SSW 16.9 SSE 0.0 836.0
09:40 21.5 64.9 1011.0 5.7 SW 15.5 SW 0.0 726.4
09:45 21.5 62.9 1010.9 9.4 SSW 19.1 SW 0.0 595.3
09:50 21.3 64.2 1010.9 4.7 S 15.5 S 0.0 564.4
09:55 21.3 65.6 1010.8 10.0 SSE 19.4 SSW 0.0 570.7
10:00 21.6 65.3 1010.8 9.5 S 19.8 S 0.0 533.5
10:05 21.5 63.3 1010.8 10.7 S 19.8 S 0.0 696.2
10:10 21.6 65.2 1010.8 9.1 SE 17.3 SSE 0.0 619.9
10:15 21.7 65.4 1010.9 7.4 SSE 16.9 SE 0.0 578.3
10:20 21.7 60.0 1010.9 10.9 SSW 20.8 S 0.0 563.8
10:25 21.7 61.8 1010.9 9.8 S 20.8 SE 0.0 655.1
10:30 21.6 61.5 1010.9 10.9 S 20.1 S 0.0 535.4
10:35 21.1 64.4 1010.9 13.6 S 22.9 SSW 0.0 374.8
10:40 20.7 66.2 1011.0 11.0 S 21.9 SSE 0.0 325.8
10:45 20.7 67.6 1011.0 10.5 SSE 19.4 SE 0.0 289.6
10:50 20.4 68.2 1011.0 9.4 S 19.4 SW 0.0 249.3
10:55 20.1 68.6 1011.0 10.4 SSE 20.5 SSE 0.0 240.7
11:00 19.8 70.6 1011.0 9.5 S 19.8 S 0.0 257.6
11:05 19.4 73.0 1011.0 11.1 SSE 19.4 S 0.0 255.9
11:10 19.3 72.3 1011.1 8.6 SSW 23.6 S 0.0 258.2
11:15 19.2 73.5 1011.1 6.5 S 11.6 SSW 0.0 277.0
11:20 19.2 74.4 1011.1 8.4 SSW 18.4 SW 0.0 265.0
11:25 19.1 74.3 1011.1 8.0 S 12.7 SSW 0.0 229.9
11:30 18.9 74.3 1011.0 5.0 SSW 12.0 SSE 0.0 176.7
11:35 18.9 73.8 1010.9 5.2 W 8.8 W 0.0 140.7
11:40 18.9 73.4 1010.9 3.9 SW 10.9 S 0.0 128.6
11:45 18.8 75.4 1010.8 7.8 SSE 10.9 SSE 0.0 130.4
11:50 18.5 78.5 1010.7 4.2 SE 8.1 SE 0.0 127.7
11:55 18.3 79.5 1010.7 5.2 S 9.9 S 0.0 145.7
12:00 18.2 80.8 1010.9 8.4 SSE 15.2 S 0.0 166.7
12:05 17.7 83.2 1010.8 10.1 SE 21.2 SE 0.1 187.5
12:10 17.3 86.0 1010.7 7.5 ESE 18.4 SE 0.0 233.9
12:15 16.8 87.3 1010.8 12.4 SSE 21.9 SSE 0.0 85.9
12:20 16.6 89.8 1010.8 6.4 SE 10.6 SSE 0.0 273.9
12:25 16.6 90.6 1010.8 8.1 SSE 14.8 SSE 0.0 271.7
12:30 16.9 92.0 1010.9 6.3 SSE 10.6 S 0.0 713.5
12:35 16.9 90.9 1010.8 8.4 SSE 15.2 S 0.0 413.9
12:40 17.0 90.6 1010.8 6.3 S 16.6 S 0.0 368.3
12:45 17.0 89.0 1010.7 9.8 SE 15.9 ESE 0.0 183.8
12:50 16.9 88.8 1010.8 9.4 SSE 16.6 SSE 0.0 161.9
12:55 16.9 89.1 1010.7 9.5 SSE 16.9 SE 0.0 98.9
13:00 16.7 89.1 1010.7 7.7 SSE 13.8 SSE 0.0 79.5
13:05 16.6 89.2 1010.7 8.1 SE 12.7 SE 0.0 119.1
13:10 16.6 89.4 1010.7 6.8 SSE 12.4 S 0.0 90.8
13:15 16.5 89.3 1010.8 7.5 SSE 13.4 SSE 0.0 71.7
13:20 16.5 88.8 1010.9 9.8 SE 15.9 SE 0.0 73.6
13:25 16.4 88.2 1010.8 9.5 SE 16.6 SSE 0.0 57.7
13:30 16.3 88.1 1010.8 8.1 SE 13.8 SE 0.0 117.1
13:35 16.4 88.0 1010.8 7.6 SSE 14.5 SSE 0.0 120.6
13:40 16.5 87.0 1010.8 7.4 SSE 12.0 SE 0.0 71.5
13:45 16.5 86.3 1010.9 8.5 SSE 18.0 S 0.0 73.1
13:50 16.5 85.6 1010.9 9.0 S 14.8 SSE 0.0 58.3
13:55 16.5 85.6 1010.9 9.3 SSE 16.2 SSE 0.0 51.6
14:00 16.3 85.7 1010.9 8.8 SSE 14.5 SSE 0.0 46.5
14:05 16.2 85.9 1010.9 4.8 SSE 11.3 S 0.0 61.2
14:10 16.2 85.2 1011.0 7.1 SSW 14.5 SW 0.0 76.5
14:15 16.2 85.0 1010.8 3.5 SSW 8.5 SW 0.0 153.2
14:20 16.3 85.1 1010.8 4.9 SSW 11.6 SSW 0.1 164.3
14:25 16.3 85.9 1010.9 5.5 SW 11.6 SSW 0.0 112.2
14:30 16.3 86.9 1010.9 1.2 SW 6.0 SW 0.0 101.8
14:35 16.3 87.3 1010.8 1.8 SW 5.6 SSW 0.0 153.1
14:40 16.4 88.1 1010.7 3.2 WNW 7.8 WNW 0.1 237.5
14:45 16.5 88.4 1010.6 3.0 NNW 5.6 NNW 0.0 327.9
14:50 16.6 88.3 1010.6 3.5 WSW 8.1 W 0.0 329.6
14:55 16.5 87.5 1010.6 4.8 SW 7.4 SW 0.0 263.3
15:00 16.3 87.1 1010.6 3.1 SW 7.8 SW 0.1 173.0
15:05 16.4 87.8 1010.6 4.5 SW 7.8 WSW 0.0 177.5
15:10 16.4 87.8 1010.5 2.7 WNW 5.6 W 0.0 99.4
15:15 16.3 86.8 1010.5 2.8 W 5.3 W 0.0 65.1
15:20 16.3 86.9 1010.5 2.7 WSW 9.9 SW 0.0 66.1
15:25 16.3 87.5 1010.5 2.4 WNW 7.8 WNW 0.1 78.7
15:30 16.2 87.9 1010.5 2.8 NW 6.4 WNW 0.1 158.6
15:35 16.4 88.8 1010.4 1.7 WSW 3.9 W 0.1 125.4
15:40 16.2 89.0 1010.4 2.7 W 7.1 SSW 0.1 69.4
15:45 16.2 89.5 1010.3 1.5 NW 3.2 NW 0.0 96.4
15:50 16.2 89.7 1010.2 0.4 NNW 2.1 NNW 0.0 144.4
15:55 16.2 90.0 1010.4 2.0 WSW 4.2 SW 0.1 155.3
16:00 16.2 90.4 1010.3 2.1 SW 5.3 SSE 0.0 122.9
16:05 16.1 90.2 1010.3 1.6 SE 4.9 SSE 0.0 95.5
16:10 16.1 90.5 1010.1 0.0 NNE 0.0 ESE 0.1 87.6
16:15 16.1 90.6 1010.1 0.1 WSW 1.1 SSW 0.0 102.6
16:20 16.1 90.7 1010.1 1.7 SW 4.2 SW 0.0 109.1
16:25 16.1 90.6 1010.1 2.4 SW 4.2 W 0.0 111.5
16:30 16.1 90.9 1010.1 2.4 SSW 4.6 SW 0.0 109.5
16:35 16.1 91.2 1010.2 4.1 S 6.4 SSW 0.0 133.6
16:40 16.2 91.3 1010.1 3.7 SSE 7.1 S 0.0 154.7
16:45 16.2 91.3 1010.0 4.4 SSE 7.4 SE 0.0 158.4
16:50 16.1 91.2 1010.1 4.0 S 6.7 SSE 0.0 210.9
16:55 16.1 91.2 1010.1 2.1 SSW 4.9 SSW 0.0 228.7
17:00 16.3 90.9 1010.0 2.3 W 6.0 WNW 0.0 148.3
17:05 16.2 89.9 1009.9 3.3 WSW 7.1 WNW 0.0 158.8
17:10 16.0 89.0 1009.8 2.5 SSE 3.5 WSW 0.0 116.5
17:15 16.0 88.8 1009.7 1.3 W 4.2 WNW 0.0 54.7
17:20 16.1 88.7 1009.8 3.2 W 5.3 WSW 0.0 46.5
17:25 16.2 88.6 1009.8 2.6 WNW 4.2 W 0.0 53.0
17:30 16.2 88.7 1009.7 0.6 W 3.5 WSW 0.0 55.0
17:35 16.2 88.9 1009.7 0.3 WSW 2.1 WSW 0.0 69.0
17:40 16.2 89.0 1009.6 1.4 WSW 3.2 SSW 0.0 90.7
17:45 16.3 89.0 1009.6 1.2 WSW 3.5 WSW 0.0 72.2
17:50 16.2 89.0 1009.6 1.6 W 3.5 W 0.0 44.4
17:55 16.2 89.1 1009.6 1.9 W 3.9 W 0.0 23.4
18:00 16.2 89.2 1009.5 0.1 SW 1.8 SW 0.0 36.7
18:05 16.1 89.2 1009.5 1.7 WSW 3.5 WSW 0.0 34.7
18:10 16.0 89.2 1009.6 0.9 WSW 3.2 W 0.0 31.5
18:15 16.0 89.4 1009.6 0.7 WSW 2.5 W 0.0 25.2
18:20 15.9 89.6 1009.6 1.5 W 2.8 W 0.0 22.6
18:25 15.8 90.0 1009.6 1.4 W 2.5 WSW 0.0 17.1
18:30 15.7 90.4 1009.8 1.9 W 3.2 W 0.0 6.9
18:35 15.6 90.7 1009.9 1.5 W 3.2 WSW 0.0 2.3
18:40 15.5 91.1 1010.0 0.1 W 1.4 W 0.0 1.0
18:45 15.5 91.4 1010.1 0.4 SW 2.5 SW 0.0 0.8
18:50 15.5 91.6 1010.1 1.0 S 5.3 S 0.0 0.6
18:55 15.5 91.9 1010.1 2.7 SW 5.3 SW 0.0 0.4
19:00 15.5 92.0 1010.2 2.6 SSW 4.9 SW 0.0 0.3
19:05 15.4 92.2 1010.3 0.8 WSW 3.2 SW 0.0 0.2
19:10 15.4 92.5 1010.3 0.8 NNW 2.8 NW 0.0 0.2
19:15 15.4 92.6 1010.3 0.9 N 3.2 N 0.0 0.1
19:20 15.4 92.5 1010.3 0.1 N 1.8 0.0 0.1
19:25 15.3 92.5 1010.3 0.9 NNW 3.2 NNW 0.0 0.1
19:30 15.2 92.7 1010.3 3.1 NNW 4.9 NNW 0.0 0.1
19:35 15.2 92.8 1010.4 0.8 NW 3.5 NW 0.0 0.1
19:40 15.1 92.9 1010.5 0.1 SSW 2.5 SSW 0.0 0.1
19:45 15.1 93.1 1010.6 0.8 SSE 3.2 SSE 0.0 0.1
19:50 15.2 93.1 1010.6 3.0 SSW 6.0 S 0.0 0.1
19:55 15.1 93.1 1010.6 3.0 SW 6.7 SW 0.0 0.1
20:00 15.1 93.2 1010.7 2.2 SSW 5.3 WSW 0.0 0.1
20:05 15.1 93.3 1010.9 3.6 SW 9.2 SSW 1.2 0.1
20:10 15.0 93.4 1011.0 3.4 SW 8.8 SW 0.5 0.1
20:15 14.9 93.7 1011.2 4.2 S 8.1 S 0.1 0.1
20:20 14.9 93.9 1011.3 5.1 WSW 20.8 WNW 0.2 0.1
20:25 14.3 92.7 1011.2 5.8 SW 17.3 NW 0.0 0.1
20:30 14.0 92.7 1011.3 4.2 SW 10.6 W 0.0 0.1
20:35 13.7 92.4 1011.3 3.9 SSE 18.4 SSW 0.0 0.1
20:40 13.6 92.4 1011.2 6.4 SW 18.7 SW 0.1 0.1
Màxima 21.7 95.1 1013.1 13.6 S 23.6 S 1.2 855.0
Mínima 13.4 60.0 1009.5
Total 3.1